<?xml version="1.0" encoding="UTF-8" standalone="no" ?>
<gpx xmlns="http://www.topografix.com/GPX/1/1" xmlns:xsi="http://www.w3.org/2001/XMLSchema-instance" xsi:schemaLocation="http://www.topografix.com/GPX/1/1 http://www.topografix.com/GPX/1/1/gpx.xsd" version="1.1" creator="VisuGPX - https://www.visugpx.com">
  <metadata>
    <name>Les 3 croix à St Sauveur en rue</name>
    <desc><![CDATA[Le Pilat départ du parking des 3 croix ]]></desc>
  </metadata>
  <trk>
    <name><![CDATA[les3 croix St Sauveur en rue]]></name>
    <trkseg>
      <trkpt lat="45.32671" lon="4.4815">
        <ele>1145</ele>
        <time>2017-07-29T21:17:35Z</time>
      </trkpt>
      <trkpt lat="45.32548" lon="4.48155">
        <ele>1143</ele>
        <time>2017-07-29T21:19:35Z</time>
      </trkpt>
      <trkpt lat="45.3246" lon="4.48103">
        <ele>1159</ele>
        <time>2017-07-29T21:21:35Z</time>
      </trkpt>
      <trkpt lat="45.32379" lon="4.4791">
        <ele>1174</ele>
        <time>2017-07-29T21:23:35Z</time>
      </trkpt>
      <trkpt lat="45.32234" lon="4.47773">
        <ele>1189</ele>
        <time>2017-07-29T21:25:35Z</time>
      </trkpt>
      <trkpt lat="45.32062" lon="4.47627">
        <ele>1191</ele>
        <time>2017-07-29T21:27:35Z</time>
      </trkpt>
      <trkpt lat="45.31959" lon="4.47695">
        <ele>1199</ele>
        <time>2017-07-29T21:29:35Z</time>
      </trkpt>
      <trkpt lat="45.31796" lon="4.47747">
        <ele>1207</ele>
        <time>2017-07-29T21:31:35Z</time>
      </trkpt>
      <trkpt lat="45.317" lon="4.47863">
        <ele>1209</ele>
        <time>2017-07-29T21:33:35Z</time>
      </trkpt>
      <trkpt lat="45.31624" lon="4.47931">
        <ele>1206</ele>
        <time>2017-07-29T21:35:35Z</time>
      </trkpt>
      <trkpt lat="45.31549" lon="4.47961">
        <ele>1203</ele>
        <time>2017-07-29T21:37:35Z</time>
      </trkpt>
      <trkpt lat="45.31426" lon="4.48168">
        <ele>1196</ele>
        <time>2017-07-29T21:39:35Z</time>
      </trkpt>
      <trkpt lat="45.31" lon="4.48075">
        <ele>1170</ele>
        <time>2017-07-29T21:41:35Z</time>
      </trkpt>
      <trkpt lat="45.3084" lon="4.4798">
        <ele>1170</ele>
        <time>2017-07-29T21:43:35Z</time>
      </trkpt>
      <trkpt lat="45.30715" lon="4.4795">
        <ele>1167</ele>
        <time>2017-07-29T21:45:35Z</time>
      </trkpt>
      <trkpt lat="45.30643" lon="4.47934">
        <ele>1167</ele>
        <time>2017-07-29T21:47:35Z</time>
      </trkpt>
      <trkpt lat="45.30617" lon="4.47914">
        <ele>1169</ele>
        <time>2017-07-29T21:49:35Z</time>
      </trkpt>
      <trkpt lat="45.30563" lon="4.47893">
        <ele>1170</ele>
        <time>2017-07-29T21:51:35Z</time>
      </trkpt>
      <trkpt lat="45.30536" lon="4.47872">
        <ele>1170</ele>
        <time>2017-07-29T21:53:35Z</time>
      </trkpt>
      <trkpt lat="45.30446" lon="4.47869">
        <ele>1169</ele>
        <time>2017-07-29T21:55:35Z</time>
      </trkpt>
      <trkpt lat="45.30453" lon="4.47854">
        <ele>1168</ele>
        <time>2017-07-29T21:57:35Z</time>
      </trkpt>
      <trkpt lat="45.30384" lon="4.48185">
        <ele>1175</ele>
        <time>2017-07-29T21:59:35Z</time>
      </trkpt>
      <trkpt lat="45.30233" lon="4.48597">
        <ele>1177</ele>
        <time>2017-07-29T22:01:35Z</time>
      </trkpt>
      <trkpt lat="45.30128" lon="4.48724">
        <ele>1167</ele>
        <time>2017-07-29T22:03:35Z</time>
      </trkpt>
      <trkpt lat="45.29951" lon="4.48844">
        <ele>1163</ele>
        <time>2017-07-29T22:05:35Z</time>
      </trkpt>
      <trkpt lat="45.29731" lon="4.48804">
        <ele>1149</ele>
        <time>2017-07-29T22:07:35Z</time>
      </trkpt>
      <trkpt lat="45.29575" lon="4.48858">
        <ele>1155</ele>
        <time>2017-07-29T23:33:35Z</time>
      </trkpt>
      <trkpt lat="45.29481" lon="4.48875">
        <ele>1153</ele>
        <time>2017-07-29T23:35:35Z</time>
      </trkpt>
      <trkpt lat="45.29357" lon="4.48828">
        <ele>1153</ele>
        <time>2017-07-29T23:37:35Z</time>
      </trkpt>
      <trkpt lat="45.29176" lon="4.48798">
        <ele>1142</ele>
        <time>2017-07-29T23:39:35Z</time>
      </trkpt>
      <trkpt lat="45.29131" lon="4.48923">
        <ele>1131</ele>
        <time>2017-07-29T23:41:35Z</time>
      </trkpt>
      <trkpt lat="45.29101" lon="4.49154">
        <ele>1120</ele>
        <time>2017-07-29T23:43:35Z</time>
      </trkpt>
      <trkpt lat="45.29149" lon="4.49262">
        <ele>1115</ele>
        <time>2017-07-29T23:45:35Z</time>
      </trkpt>
      <trkpt lat="45.29065" lon="4.49223">
        <ele>1105</ele>
        <time>2017-07-29T23:47:35Z</time>
      </trkpt>
      <trkpt lat="45.29007" lon="4.49601">
        <ele>1079</ele>
        <time>2017-07-29T23:49:35Z</time>
      </trkpt>
      <trkpt lat="45.28971" lon="4.49798">
        <ele>1057</ele>
        <time>2017-07-29T23:51:35Z</time>
      </trkpt>
      <trkpt lat="45.28841" lon="4.49871">
        <ele>1038</ele>
        <time>2017-07-29T23:53:35Z</time>
      </trkpt>
      <trkpt lat="45.28775" lon="4.50077">
        <ele>1010</ele>
        <time>2017-07-29T23:55:35Z</time>
      </trkpt>
      <trkpt lat="45.28899" lon="4.50176">
        <ele>990</ele>
        <time>2017-07-29T23:57:35Z</time>
      </trkpt>
      <trkpt lat="45.28823" lon="4.50275">
        <ele>981</ele>
        <time>2017-07-29T23:59:35Z</time>
      </trkpt>
      <trkpt lat="45.28696" lon="4.50326">
        <ele>962</ele>
        <time>2017-07-30T00:01:35Z</time>
      </trkpt>
      <trkpt lat="45.28576" lon="4.50167">
        <ele>954</ele>
        <time>2017-07-30T00:03:35Z</time>
      </trkpt>
      <trkpt lat="45.2847" lon="4.50056">
        <ele>932</ele>
        <time>2017-07-30T00:05:35Z</time>
      </trkpt>
      <trkpt lat="45.28373" lon="4.49824">
        <ele>890</ele>
        <time>2017-07-30T00:07:35Z</time>
      </trkpt>
      <trkpt lat="45.28325" lon="4.49399">
        <ele>875</ele>
        <time>2017-07-30T00:09:35Z</time>
      </trkpt>
      <trkpt lat="45.28289" lon="4.49343">
        <ele>878</ele>
        <time>2017-07-30T00:11:35Z</time>
      </trkpt>
      <trkpt lat="45.28237" lon="4.49288">
        <ele>884</ele>
        <time>2017-07-30T00:13:35Z</time>
      </trkpt>
      <trkpt lat="45.28183" lon="4.49279">
        <ele>892</ele>
        <time>2017-07-30T00:15:35Z</time>
      </trkpt>
      <trkpt lat="45.28161" lon="4.49266">
        <ele>896</ele>
        <time>2017-07-30T00:17:35Z</time>
      </trkpt>
      <trkpt lat="45.28111" lon="4.49257">
        <ele>905</ele>
        <time>2017-07-30T00:23:35Z</time>
      </trkpt>
      <trkpt lat="45.2805" lon="4.49176">
        <ele>908</ele>
        <time>2017-07-30T00:25:35Z</time>
      </trkpt>
      <trkpt lat="45.28023" lon="4.49081">
        <ele>903</ele>
        <time>2017-07-30T00:27:35Z</time>
      </trkpt>
      <trkpt lat="45.27899" lon="4.4906">
        <ele>885</ele>
        <time>2017-07-30T00:29:35Z</time>
      </trkpt>
      <trkpt lat="45.27799" lon="4.49094">
        <ele>871</ele>
        <time>2017-07-30T00:31:35Z</time>
      </trkpt>
      <trkpt lat="45.27594" lon="4.49069">
        <ele>850</ele>
        <time>2017-07-30T00:33:35Z</time>
      </trkpt>
      <trkpt lat="45.27661" lon="4.48794">
        <ele>867</ele>
        <time>2017-07-30T00:35:35Z</time>
      </trkpt>
      <trkpt lat="45.27564" lon="4.4879">
        <ele>864</ele>
        <time>2017-07-30T00:37:35Z</time>
      </trkpt>
      <trkpt lat="45.27516" lon="4.48863">
        <ele>849</ele>
        <time>2017-07-30T00:39:35Z</time>
      </trkpt>
      <trkpt lat="45.27455" lon="4.48811">
        <ele>848</ele>
        <time>2017-07-30T00:41:35Z</time>
      </trkpt>
      <trkpt lat="45.27455" lon="4.48468">
        <ele>889</ele>
        <time>2017-07-30T00:43:35Z</time>
      </trkpt>
      <trkpt lat="45.27374" lon="4.48455">
        <ele>888</ele>
        <time>2017-07-30T00:45:35Z</time>
      </trkpt>
      <trkpt lat="45.27259" lon="4.48438">
        <ele>890</ele>
        <time>2017-07-30T00:47:35Z</time>
      </trkpt>
      <trkpt lat="45.27226" lon="4.48292">
        <ele>917</ele>
        <time>2017-07-30T00:49:35Z</time>
      </trkpt>
      <trkpt lat="45.27162" lon="4.4812">
        <ele>948</ele>
        <time>2017-07-30T00:51:35Z</time>
      </trkpt>
      <trkpt lat="45.2709" lon="4.47871">
        <ele>997</ele>
        <time>2017-07-30T00:53:35Z</time>
      </trkpt>
      <trkpt lat="45.27014" lon="4.4782">
        <ele>1008</ele>
        <time>2017-07-30T00:55:35Z</time>
      </trkpt>
      <trkpt lat="45.27017" lon="4.48034">
        <ele>989</ele>
        <time>2017-07-30T00:57:35Z</time>
      </trkpt>
      <trkpt lat="45.26969" lon="4.48172">
        <ele>996</ele>
        <time>2017-07-30T00:59:35Z</time>
      </trkpt>
      <trkpt lat="45.26972" lon="4.48063">
        <ele>995</ele>
        <time>2017-07-30T01:01:35Z</time>
      </trkpt>
      <trkpt lat="45.26967" lon="4.47996">
        <ele>1003</ele>
        <time>2017-07-30T01:15:35Z</time>
      </trkpt>
      <trkpt lat="45.26964" lon="4.47945">
        <ele>1005</ele>
        <time>2017-07-30T01:17:35Z</time>
      </trkpt>
      <trkpt lat="45.26934" lon="4.47838">
        <ele>1015</ele>
        <time>2017-07-30T01:19:35Z</time>
      </trkpt>
      <trkpt lat="45.2689" lon="4.47767">
        <ele>1031</ele>
        <time>2017-07-30T01:21:35Z</time>
      </trkpt>
      <trkpt lat="45.26891" lon="4.47627">
        <ele>1039</ele>
        <time>2017-07-30T01:23:35Z</time>
      </trkpt>
      <trkpt lat="45.26791" lon="4.47721">
        <ele>1058</ele>
        <time>2017-07-30T01:25:35Z</time>
      </trkpt>
      <trkpt lat="45.26761" lon="4.47459">
        <ele>1086</ele>
        <time>2017-07-30T01:27:35Z</time>
      </trkpt>
      <trkpt lat="45.26833" lon="4.47215">
        <ele>1105</ele>
        <time>2017-07-30T01:29:35Z</time>
      </trkpt>
      <trkpt lat="45.26921" lon="4.46927">
        <ele>1143</ele>
        <time>2017-07-30T01:31:35Z</time>
      </trkpt>
      <trkpt lat="45.26948" lon="4.46863">
        <ele>1147</ele>
        <time>2017-07-30T01:33:35Z</time>
      </trkpt>
      <trkpt lat="45.26739" lon="4.46725">
        <ele>1161</ele>
        <time>2017-07-30T01:35:35Z</time>
      </trkpt>
      <trkpt lat="45.26661" lon="4.46412">
        <ele>1159</ele>
        <time>2017-07-30T01:37:35Z</time>
      </trkpt>
      <trkpt lat="45.26573" lon="4.46193">
        <ele>1159</ele>
        <time>2017-07-30T01:39:35Z</time>
      </trkpt>
      <trkpt lat="45.26462" lon="4.45876">
        <ele>1145</ele>
        <time>2017-07-30T01:41:35Z</time>
      </trkpt>
      <trkpt lat="45.26383" lon="4.45597">
        <ele>1133</ele>
        <time>2017-07-30T01:43:35Z</time>
      </trkpt>
      <trkpt lat="45.2625" lon="4.45489">
        <ele>1125</ele>
        <time>2017-07-30T01:45:35Z</time>
      </trkpt>
      <trkpt lat="45.26099" lon="4.45485">
        <ele>1121</ele>
        <time>2017-07-30T01:47:35Z</time>
      </trkpt>
      <trkpt lat="45.25999" lon="4.45438">
        <ele>1115</ele>
        <time>2017-07-30T01:49:35Z</time>
      </trkpt>
      <trkpt lat="45.25963" lon="4.45339">
        <ele>1107</ele>
        <time>2017-07-30T01:51:35Z</time>
      </trkpt>
      <trkpt lat="45.26057" lon="4.45245">
        <ele>1110</ele>
        <time>2017-07-30T01:53:35Z</time>
      </trkpt>
      <trkpt lat="45.26123" lon="4.45077">
        <ele>1117</ele>
        <time>2017-07-30T01:55:35Z</time>
      </trkpt>
      <trkpt lat="45.26271" lon="4.44837">
        <ele>1101</ele>
        <time>2017-07-30T01:57:35Z</time>
      </trkpt>
      <trkpt lat="45.26253" lon="4.44563">
        <ele>1091</ele>
        <time>2017-07-30T01:59:35Z</time>
      </trkpt>
      <trkpt lat="45.26259" lon="4.44249">
        <ele>1072</ele>
        <time>2017-07-30T02:01:35Z</time>
      </trkpt>
      <trkpt lat="45.26289" lon="4.44159">
        <ele>1058</ele>
        <time>2017-07-30T02:03:35Z</time>
      </trkpt>
      <trkpt lat="45.26341" lon="4.4394">
        <ele>1055</ele>
        <time>2017-07-30T02:05:35Z</time>
      </trkpt>
      <trkpt lat="45.26498" lon="4.43854">
        <ele>1048</ele>
        <time>2017-07-30T02:07:35Z</time>
      </trkpt>
      <trkpt lat="45.26582" lon="4.43687">
        <ele>1037</ele>
        <time>2017-07-30T02:09:35Z</time>
      </trkpt>
      <trkpt lat="45.26661" lon="4.43627">
        <ele>1039</ele>
        <time>2017-07-30T02:11:35Z</time>
      </trkpt>
      <trkpt lat="45.26703" lon="4.43494">
        <ele>1030</ele>
        <time>2017-07-30T02:13:35Z</time>
      </trkpt>
      <trkpt lat="45.26803" lon="4.43382">
        <ele>1020</ele>
        <time>2017-07-30T02:15:35Z</time>
      </trkpt>
      <trkpt lat="45.26872" lon="4.43408">
        <ele>1014</ele>
        <time>2017-07-30T02:17:35Z</time>
      </trkpt>
      <trkpt lat="45.26818" lon="4.43254">
        <ele>996</ele>
        <time>2017-07-30T02:19:35Z</time>
      </trkpt>
      <trkpt lat="45.26863" lon="4.43224">
        <ele>986</ele>
        <time>2017-07-30T02:21:35Z</time>
      </trkpt>
      <trkpt lat="45.26915" lon="4.43322">
        <ele>992</ele>
        <time>2017-07-30T02:23:35Z</time>
      </trkpt>
      <trkpt lat="45.27002" lon="4.43352">
        <ele>983</ele>
        <time>2017-07-30T02:25:35Z</time>
      </trkpt>
      <trkpt lat="45.27054" lon="4.43507">
        <ele>982</ele>
        <time>2017-07-30T02:27:35Z</time>
      </trkpt>
      <trkpt lat="45.27063" lon="4.43627">
        <ele>985</ele>
        <time>2017-07-30T02:29:35Z</time>
      </trkpt>
      <trkpt lat="45.27159" lon="4.43691">
        <ele>980</ele>
        <time>2017-07-30T02:31:35Z</time>
      </trkpt>
      <trkpt lat="45.27208" lon="4.43644">
        <ele>978</ele>
        <time>2017-07-30T02:33:35Z</time>
      </trkpt>
      <trkpt lat="45.27168" lon="4.43563">
        <ele>977</ele>
        <time>2017-07-30T02:35:35Z</time>
      </trkpt>
      <trkpt lat="45.27259" lon="4.43533">
        <ele>984</ele>
        <time>2017-07-30T02:37:35Z</time>
      </trkpt>
      <trkpt lat="45.27301" lon="4.43455">
        <ele>991</ele>
        <time>2017-07-30T02:39:35Z</time>
      </trkpt>
      <trkpt lat="45.27295" lon="4.43446">
        <ele>988</ele>
        <time>2017-07-30T03:01:35Z</time>
      </trkpt>
      <trkpt lat="45.2732" lon="4.43358">
        <ele>997</ele>
        <time>2017-07-30T03:03:35Z</time>
      </trkpt>
      <trkpt lat="45.27527" lon="4.43072">
        <ele>1008</ele>
        <time>2017-07-30T03:05:35Z</time>
      </trkpt>
      <trkpt lat="45.27603" lon="4.42878">
        <ele>1010</ele>
        <time>2017-07-30T03:07:35Z</time>
      </trkpt>
      <trkpt lat="45.27634" lon="4.42904">
        <ele>1019</ele>
        <time>2017-07-30T03:09:35Z</time>
      </trkpt>
      <trkpt lat="45.27703" lon="4.43091">
        <ele>1034</ele>
        <time>2017-07-30T03:11:35Z</time>
      </trkpt>
      <trkpt lat="45.27754" lon="4.43039">
        <ele>1048</ele>
        <time>2017-07-30T03:13:35Z</time>
      </trkpt>
      <trkpt lat="45.27902" lon="4.43035">
        <ele>1064</ele>
        <time>2017-07-30T03:15:35Z</time>
      </trkpt>
      <trkpt lat="45.28008" lon="4.42859">
        <ele>1069</ele>
        <time>2017-07-30T03:17:35Z</time>
      </trkpt>
      <trkpt lat="45.28135" lon="4.42945">
        <ele>1092</ele>
        <time>2017-07-30T03:19:35Z</time>
      </trkpt>
      <trkpt lat="45.28283" lon="4.42812">
        <ele>1115</ele>
        <time>2017-07-30T03:21:35Z</time>
      </trkpt>
      <trkpt lat="45.28325" lon="4.42957">
        <ele>1130</ele>
        <time>2017-07-30T03:23:35Z</time>
      </trkpt>
      <trkpt lat="45.28446" lon="4.42996">
        <ele>1140</ele>
        <time>2017-07-30T03:25:35Z</time>
      </trkpt>
      <trkpt lat="45.28588" lon="4.43039">
        <ele>1137</ele>
        <time>2017-07-30T03:27:35Z</time>
      </trkpt>
      <trkpt lat="45.28687" lon="4.43103">
        <ele>1133</ele>
        <time>2017-07-30T03:29:35Z</time>
      </trkpt>
      <trkpt lat="45.28835" lon="4.43163">
        <ele>1141</ele>
        <time>2017-07-30T03:31:35Z</time>
      </trkpt>
      <trkpt lat="45.28911" lon="4.43163">
        <ele>1139</ele>
        <time>2017-07-30T03:33:35Z</time>
      </trkpt>
      <trkpt lat="45.2904" lon="4.43241">
        <ele>1126</ele>
        <time>2017-07-30T03:35:35Z</time>
      </trkpt>
      <trkpt lat="45.29158" lon="4.43292">
        <ele>1122</ele>
        <time>2017-07-30T03:37:35Z</time>
      </trkpt>
      <trkpt lat="45.29351" lon="4.43434">
        <ele>1132</ele>
        <time>2017-07-30T03:39:35Z</time>
      </trkpt>
      <trkpt lat="45.29427" lon="4.43434">
        <ele>1126</ele>
        <time>2017-07-30T03:41:35Z</time>
      </trkpt>
      <trkpt lat="45.2962" lon="4.43687">
        <ele>1122</ele>
        <time>2017-07-30T03:43:35Z</time>
      </trkpt>
      <trkpt lat="45.29767" lon="4.43702">
        <ele>1134</ele>
        <time>2017-07-30T03:45:35Z</time>
      </trkpt>
      <trkpt lat="45.29836" lon="4.43733">
        <ele>1138</ele>
        <time>2017-07-30T03:47:35Z</time>
      </trkpt>
      <trkpt lat="45.29995" lon="4.43656">
        <ele>1143</ele>
        <time>2017-07-30T03:49:35Z</time>
      </trkpt>
      <trkpt lat="45.30129" lon="4.43677">
        <ele>1145</ele>
        <time>2017-07-30T03:51:35Z</time>
      </trkpt>
      <trkpt lat="45.30219" lon="4.43697">
        <ele>1147</ele>
        <time>2017-07-30T03:53:35Z</time>
      </trkpt>
      <trkpt lat="45.30401" lon="4.43691">
        <ele>1138</ele>
        <time>2017-07-30T03:55:35Z</time>
      </trkpt>
      <trkpt lat="45.30458" lon="4.4368">
        <ele>1139</ele>
        <time>2017-07-30T03:57:35Z</time>
      </trkpt>
      <trkpt lat="45.3054" lon="4.4362">
        <ele>1145</ele>
        <time>2017-07-30T03:59:35Z</time>
      </trkpt>
      <trkpt lat="45.30612" lon="4.43466">
        <ele>1147</ele>
        <time>2017-07-30T04:01:35Z</time>
      </trkpt>
      <trkpt lat="45.30977" lon="4.43601">
        <ele>1142</ele>
        <time>2017-07-30T04:03:35Z</time>
      </trkpt>
      <trkpt lat="45.31124" lon="4.4368">
        <ele>1134</ele>
        <time>2017-07-30T04:05:35Z</time>
      </trkpt>
      <trkpt lat="45.31206" lon="4.43712">
        <ele>1126</ele>
        <time>2017-07-30T04:07:35Z</time>
      </trkpt>
      <trkpt lat="45.31357" lon="4.43737">
        <ele>1107</ele>
        <time>2017-07-30T04:09:35Z</time>
      </trkpt>
      <trkpt lat="45.31498" lon="4.43745">
        <ele>1090</ele>
        <time>2017-07-30T04:11:35Z</time>
      </trkpt>
      <trkpt lat="45.31643" lon="4.43722">
        <ele>1080</ele>
        <time>2017-07-30T04:13:35Z</time>
      </trkpt>
      <trkpt lat="45.31643" lon="4.43814">
        <ele>1086</ele>
        <time>2017-07-30T04:15:35Z</time>
      </trkpt>
      <trkpt lat="45.31705" lon="4.44005">
        <ele>1094</ele>
        <time>2017-07-30T04:17:35Z</time>
      </trkpt>
      <trkpt lat="45.3177" lon="4.4425">
        <ele>1104</ele>
        <time>2017-07-30T04:19:35Z</time>
      </trkpt>
      <trkpt lat="45.31913" lon="4.44753">
        <ele>1122</ele>
        <time>2017-07-30T04:21:35Z</time>
      </trkpt>
      <trkpt lat="45.31886" lon="4.44895">
        <ele>1130</ele>
        <time>2017-07-30T04:23:35Z</time>
      </trkpt>
      <trkpt lat="45.31676" lon="4.45082">
        <ele>1158</ele>
        <time>2017-07-30T04:25:35Z</time>
      </trkpt>
      <trkpt lat="45.31579" lon="4.45339">
        <ele>1154</ele>
        <time>2017-07-30T04:27:35Z</time>
      </trkpt>
      <trkpt lat="45.31482" lon="4.45472">
        <ele>1162</ele>
        <time>2017-07-30T04:29:35Z</time>
      </trkpt>
      <trkpt lat="45.31416" lon="4.45648">
        <ele>1157</ele>
        <time>2017-07-30T04:31:35Z</time>
      </trkpt>
      <trkpt lat="45.31419" lon="4.45953">
        <ele>1152</ele>
        <time>2017-07-30T04:33:35Z</time>
      </trkpt>
      <trkpt lat="45.31419" lon="4.46331">
        <ele>1146</ele>
        <time>2017-07-30T04:35:35Z</time>
      </trkpt>
      <trkpt lat="45.31531" lon="4.46477">
        <ele>1152</ele>
        <time>2017-07-30T04:37:35Z</time>
      </trkpt>
      <trkpt lat="45.31618" lon="4.46549">
        <ele>1150</ele>
        <time>2017-07-30T04:39:35Z</time>
      </trkpt>
      <trkpt lat="45.31685" lon="4.46833">
        <ele>1167</ele>
        <time>2017-07-30T04:41:35Z</time>
      </trkpt>
      <trkpt lat="45.31733" lon="4.46893">
        <ele>1172</ele>
        <time>2017-07-30T04:43:35Z</time>
      </trkpt>
      <trkpt lat="45.31905" lon="4.47185">
        <ele>1185</ele>
        <time>2017-07-30T04:45:35Z</time>
      </trkpt>
      <trkpt lat="45.3198" lon="4.47416">
        <ele>1181</ele>
        <time>2017-07-30T04:47:35Z</time>
      </trkpt>
      <trkpt lat="45.32092" lon="4.4767">
        <ele>1193</ele>
        <time>2017-07-30T04:49:35Z</time>
      </trkpt>
      <trkpt lat="45.32291" lon="4.4782">
        <ele>1183</ele>
        <time>2017-07-30T04:51:35Z</time>
      </trkpt>
      <trkpt lat="45.32421" lon="4.48013">
        <ele>1170</ele>
        <time>2017-07-30T04:53:35Z</time>
      </trkpt>
      <trkpt lat="45.32514" lon="4.48176">
        <ele>1144</ele>
        <time>2017-07-30T04:55:35Z</time>
      </trkpt>
      <trkpt lat="45.32683" lon="4.48082">
        <ele>1145</ele>
        <time>2017-07-30T04:57:35Z</time>
      </trkpt>
    </trkseg>
  </trk>
</gpx>